Terminal Aerodrome Forecast
Issued by NWS Nashville, TN

Current Version | Previous Version | Text Only | Print | Product List | Glossary On
Versions: 1 2 3 4 5 6 7 8 9 10 11 12 13 14 15 16 17 18 19 20 21 22
000
FTUS44 KOHX 261100
TAFCSV
TAF
KCSV 261127Z 2612/2712 18006KT P6SM VCSH BKN010 OVC014
     FM261500 17010G18KT P6SM VCSH SCT010 OVC035
      TEMPO 2615/2618 BKN015 OVC035
     FM261800 18012G20KT P6SM VCTS OVC030CB
     FM262300 19007KT P6SM VCSH BKN040
     FM270600 19003KT 3SM BR OVC007=

USA.gov is the U.S. government's official web portal to all federal, state and local government web resources and services.